Time;durP1;ratioP1;P1;durP2;ratioP2;P2;SDS_P1;SDS_P2;PMS_P1;PMS_P2;Temp;Humidity;BMP_temperature;BMP_pressure;BME280_temperature;BME280_humidity;BME280_pressure;Samples;Min_cycle;Max_cycle;Signal;HPM_P1;HPM_P2
2023/04/20 00:02:04;;;;;;;7.80;3.70;;;8.10;78.80;;;;;;5016458;28;20048;-65
2023/04/20 00:04:29;;;;;;;8.63;3.33;;;8.10;79.40;;;;;;5013642;28;20416;-64
2023/04/20 00:06:58;;;;;;;7.22;3.65;;;8.20;79.90;;;;;;5013467;28;20057;-65
2023/04/20 00:09:25;;;;;;;7.07;3.70;;;8.10;80.20;;;;;;5013364;28;20038;-65
2023/04/20 00:11:51;;;;;;;6.50;3.83;;;8.20;80.80;;;;;;4988520;28;20053;-65
2023/04/20 00:14:16;;;;;;;7.30;3.95;;;8.20;81.30;;;;;;5013038;28;20034;-65
2023/04/20 00:16:42;;;;;;;7.93;3.92;;;8.20;81.90;;;;;;5013250;28;20045;-65
2023/04/20 00:19:08;;;;;;;7.75;3.72;;;8.20;82.50;;;;;;5011904;28;20241;-65
2023/04/20 00:21:34;;;;;;;5.72;3.47;;;8.20;82.90;;;;;;4992658;28;20088;-64
2023/04/20 00:24:00;;;;;;;9.35;4.13;;;8.20;83.30;;;;;;5013128;28;20076;-65
2023/04/20 00:26:25;;;;;;;7.22;4.00;;;8.20;83.80;;;;;;4979251;28;20069;-65
2023/04/20 00:28:51;;;;;;;8.02;4.10;;;8.20;84.50;;;;;;5013551;28;20049;-65
2023/04/20 00:31:18;;;;;;;7.82;3.78;;;8.30;85.00;;;;;;5012111;28;20037;-65
2023/04/20 00:33:43;;;;;;;6.63;3.78;;;8.20;85.60;;;;;;5005893;28;20155;-65
2023/04/20 00:36:09;;;;;;;10.55;4.20;;;8.20;86.60;;;;;;4979030;28;20120;-65
2023/04/20 00:38:35;;;;;;;5.45;3.40;;;8.20;86.70;;;;;;5005721;28;20049;-65
2023/04/20 00:41:00;;;;;;;8.23;3.70;;;8.20;87.30;;;;;;4998676;28;20484;-65
2023/04/20 00:43:26;;;;;;;8.18;3.72;;;8.20;88.10;;;;;;5007411;28;20042;-65
2023/04/20 00:45:52;;;;;;;8.18;3.70;;;8.20;88.80;;;;;;5012337;28;20045;-65
2023/04/20 00:48:18;;;;;;;7.22;3.38;;;8.20;89.40;;;;;;5009248;28;20164;-65
2023/04/20 00:50:45;;;;;;;6.15;3.67;;;8.10;90.00;;;;;;5017756;28;20444;-65
2023/04/20 00:55:47;;;;;;;7.70;3.70;;;8.10;90.80;;;;;;5021814;28;20462;-64
2023/04/20 00:58:12;;;;;;;7.18;3.45;;;8.10;90.90;;;;;;5016584;28;20451;-65
2023/04/20 01:00:39;;;;;;;6.53;3.92;;;8.10;91.20;;;;;;5001112;28;20132;-64
2023/04/20 01:03:06;;;;;;;8.48;3.80;;;8.10;91.60;;;;;;5027671;28;20105;-65
2023/04/20 01:05:32;;;;;;;7.63;3.20;;;8.10;92.00;;;;;;5009043;28;20091;-64
2023/04/20 01:07:58;;;;;;;6.20;3.50;;;8.10;92.30;;;;;;4995598;28;20045;-64
2023/04/20 01:10:23;;;;;;;6.63;3.45;;;8.10;92.60;;;;;;4995126;28;20041;-62
2023/04/20 01:12:49;;;;;;;7.65;3.78;;;8.10;92.90;;;;;;5004655;28;20528;-64
2023/04/20 01:15:14;;;;;;;6.53;3.17;;;8.10;93.20;;;;;;4995635;28;20538;-64
2023/04/20 01:17:42;;;;;;;6.10;3.10;;;8.10;93.40;;;;;;4994629;28;20049;-64
2023/04/20 01:20:13;;;;;;;7.65;3.35;;;8.10;93.70;;;;;;5012321;28;20072;-64
2023/04/20 01:22:52;;;;;;;5.07;3.33;;;8.20;94.10;;;;;;5009968;28;20038;-64
2023/04/20 01:25:19;;;;;;;6.72;3.10;;;8.20;94.60;;;;;;4994416;28;20088;-63
2023/04/20 01:27:44;;;;;;;7.80;3.20;;;8.20;94.60;;;;;;4994715;28;20049;-64
2023/04/20 01:30:11;;;;;;;5.88;3.17;;;8.20;94.90;;;;;;5012265;28;20034;-65
2023/04/20 01:32:38;;;;;;;6.47;2.92;;;8.30;95.10;;;;;;4994150;28;20052;-65
2023/04/20 01:35:04;;;;;;;7.30;2.85;;;8.30;95.40;;;;;;5011990;28;20030;-64
2023/04/20 01:37:30;;;;;;;5.35;2.80;;;8.30;95.60;;;;;;4996578;28;20038;-64
2023/04/20 01:39:56;;;;;;;4.20;2.55;;;8.40;95.70;;;;;;5011313;28;20033;-64
2023/04/20 01:42:22;;;;;;;6.57;2.85;;;8.40;95.90;;;;;;5015492;28;20092;-64
2023/04/20 01:44:47;;;;;;;5.22;2.80;;;8.40;96.00;;;;;;5011646;28;20109;-64
2023/04/20 01:47:13;;;;;;;7.82;3.13;;;8.50;96.20;;;;;;4994240;28;20510;-64
2023/04/20 01:49:39;;;;;;;6.07;2.90;;;8.50;96.20;;;;;;5011826;28;20049;-64
2023/04/20 01:52:05;;;;;;;5.32;2.80;;;8.50;96.30;;;;;;4989302;28;20515;-64
2023/04/20 01:54:31;;;;;;;6.78;2.88;;;8.60;96.30;;;;;;5011403;28;20037;-63
2023/04/20 01:56:56;;;;;;;6.28;2.63;;;8.60;96.30;;;;;;5003458;28;20030;-64
2023/04/20 01:59:22;;;;;;;4.38;2.47;;;8.60;96.40;;;;;;5005552;28;20523;-64
2023/04/20 02:01:47;;;;;;;6.63;2.83;;;8.70;96.40;;;;;;4990528;28;20074;-64
2023/04/20 02:04:13;;;;;;;5.55;2.70;;;8.70;96.40;;;;;;5011639;28;20096;-64
2023/04/20 02:06:39;;;;;;;6.18;2.90;;;8.70;96.40;;;;;;4993189;28;20514;-64
2023/04/20 02:09:05;;;;;;;5.97;2.63;;;8.70;96.30;;;;;;5011720;28;20079;-64
2023/04/20 02:11:30;;;;;;;6.82;2.90;;;8.80;96.50;;;;;;4994166;28;20056;-65
2023/04/20 02:13:56;;;;;;;7.95;2.70;;;8.80;96.40;;;;;;4990231;28;20046;-65
2023/04/20 02:16:22;;;;;;;4.78;2.45;;;8.80;96.50;;;;;;4993670;28;20492;-64
2023/04/20 02:18:48;;;;;;;5.68;2.63;;;8.80;96.60;;;;;;5011405;28;20450;-64
2023/04/20 02:21:14;;;;;;;5.72;2.70;;;8.90;96.60;;;;;;5011278;28;20117;-64
2023/04/20 02:23:39;;;;;;;4.97;2.45;;;8.80;96.60;;;;;;5009390;28;20038;-65
2023/04/20 02:26:05;;;;;;;12.23;3.08;;;8.90;96.70;;;;;;5011276;28;20390;-64
2023/04/20 02:28:31;;;;;;;6.55;2.70;;;8.80;96.70;;;;;;4992333;28;20548;-64
2023/04/20 02:30:56;;;;;;;7.53;2.35;;;8.90;96.70;;;;;;4993720;28;20045;-64
2023/04/20 02:33:22;;;;;;;4.53;2.65;;;8.80;96.60;;;;;;5011238;28;20034;-64
2023/04/20 02:35:48;;;;;;;9.85;2.40;;;8.90;96.70;;;;;;5010424;28;20030;-65
2023/04/20 02:38:13;;;;;;;6.22;2.50;;;8.90;96.80;;;;;;4993831;28;20049;-64
2023/04/20 02:40:39;;;;;;;4.82;2.22;;;8.90;96.80;;;;;;5010038;28;20042;-65
2023/04/20 02:43:05;;;;;;;5.18;2.35;;;8.90;96.70;;;;;;4989865;28;20026;-64
2023/04/20 02:45:31;;;;;;;6.30;2.85;;;8.80;96.90;;;;;;5003361;28;20491;-64
2023/04/20 02:47:57;;;;;;;5.07;2.50;;;8.90;96.90;;;;;;4986029;28;20034;-64
2023/04/20 02:50:23;;;;;;;5.95;2.70;;;8.80;96.90;;;;;;5011295;28;20117;-64
2023/04/20 02:52:48;;;;;;;3.63;2.45;;;8.80;97.10;;;;;;4994849;28;20120;-62
2023/04/20 02:55:14;;;;;;;8.00;2.63;;;8.80;97.10;;;;;;5016713;28;20045;-64
2023/04/20 02:57:39;;;;;;;5.65;2.53;;;8.80;97.30;;;;;;5006828;28;20061;-64
2023/04/20 03:00:07;;;;;;;4.57;2.13;;;8.80;97.30;;;;;;5011187;28;20463;-64
2023/04/20 03:02:33;;;;;;;5.30;2.53;;;8.80;97.50;;;;;;4993287;28;20050;-64
2023/04/20 03:04:58;;;;;;;5.45;2.45;;;8.80;97.50;;;;;;5010750;28;20026;-65
2023/04/20 03:07:24;;;;;;;7.55;2.55;;;8.70;97.50;;;;;;5011290;28;20128;-65
2023/04/20 03:09:50;;;;;;;8.55;2.45;;;8.80;97.50;;;;;;5009135;28;20073;-65
2023/04/20 03:12:17;;;;;;;6.25;2.53;;;8.70;97.60;;;;;;4993736;28;20128;-64
2023/04/20 03:14:43;;;;;;;5.05;2.40;;;8.70;97.70;;;;;;4993274;28;20492;-65
2023/04/20 03:17:08;;;;;;;7.38;2.70;;;8.70;97.90;;;;;;4986623;28;20172;-65
2023/04/20 03:19:35;;;;;;;10.98;2.75;;;8.70;98.00;;;;;;5009255;28;20046;-64
2023/04/20 03:22:01;;;;;;;6.85;2.60;;;8.70;98.20;;;;;;4993332;28;20436;-65
2023/04/20 03:24:26;;;;;;;4.60;2.30;;;8.70;98.40;;;;;;5011195;28;20077;-64
2023/04/20 03:26:52;;;;;;;5.88;2.72;;;8.80;98.50;;;;;;5008954;28;20046;-64
2023/04/20 03:29:17;;;;;;;4.55;2.10;;;8.80;98.70;;;;;;5011148;28;20488;-63
2023/04/20 03:31:43;;;;;;;6.00;2.40;;;8.80;98.80;;;;;;5010936;28;20503;-64
2023/04/20 03:34:09;;;;;;;4.60;2.70;;;8.80;98.90;;;;;;4993298;28;20044;-65
2023/04/20 03:36:35;;;;;;;5.82;2.63;;;8.80;98.90;;;;;;5010729;28;20463;-64
2023/04/20 03:39:00;;;;;;;6.00;2.50;;;8.80;99.20;;;;;;5008909;28;20551;-65
2023/04/20 03:41:26;;;;;;;5.95;2.65;;;8.80;99.20;;;;;;4992734;28;20049;-64
2023/04/20 03:43:52;;;;;;;5.05;2.30;;;8.80;99.30;;;;;;5010922;28;20133;-65
2023/04/20 03:46:17;;;;;;;5.30;2.40;;;8.80;99.30;;;;;;5010859;28;20484;-65
2023/04/20 03:48:43;;;;;;;6.32;2.60;;;8.80;99.40;;;;;;4994827;28;20103;-64
2023/04/20 03:51:08;;;;;;;5.05;2.40;;;8.80;99.50;;;;;;5003506;28;20470;-64
2023/04/20 03:53:34;;;;;;;4.93;2.47;;;8.80;99.70;;;;;;5015530;28;20087;-65
2023/04/20 03:56:00;;;;;;;5.07;2.72;;;8.80;99.80;;;;;;5007915;28;20377;-65
2023/04/20 03:58:25;;;;;;;6.15;2.67;;;8.80;99.80;;;;;;5014843;28;20051;-64
2023/04/20 04:00:51;;;;;;;5.85;2.55;;;8.80;99.80;;;;;;5014509;28;20124;-64
2023/04/20 04:03:17;;;;;;;7.03;2.92;;;8.80;99.80;;;;;;5006097;28;20044;-63
2023/04/20 04:05:42;;;;;;;7.80;2.60;;;8.80;99.80;;;;;;5014027;28;20459;-64
2023/04/20 04:08:08;;;;;;;6.35;2.55;;;8.80;99.90;;;;;;4997073;28;20069;-64
2023/04/20 04:10:33;;;;;;;7.45;2.78;;;8.80;99.80;;;;;;5017718;28;20503;-64
2023/04/20 04:13:02;;;;;;;6.03;2.58;;;8.80;99.50;;;;;;5014454;28;20481;-64
2023/04/20 04:15:27;;;;;;;6.95;2.83;;;8.80;99.30;;;;;;4995831;28;20065;-64
2023/04/20 04:17:55;;;;;;;8.07;2.47;;;8.80;99.10;;;;;;4995973;28;20492;-63
2023/04/20 04:20:20;;;;;;;7.03;2.30;;;8.80;99.00;;;;;;5013751;28;20041;-64
2023/04/20 04:22:46;;;;;;;7.50;3.00;;;8.80;98.90;;;;;;4975302;28;20117;-64
2023/04/20 04:25:11;;;;;;;6.00;2.97;;;8.80;98.90;;;;;;5006275;28;20042;-64
2023/04/20 04:27:38;;;;;;;5.18;2.50;;;8.80;99.10;;;;;;5011886;28;20096;-62
2023/04/20 04:30:05;;;;;;;4.93;2.88;;;8.80;99.20;;;;;;5013634;28;20403;-65
2023/04/20 04:32:33;;;;;;;4.55;2.55;;;8.80;99.50;;;;;;4995636;28;20077;-64
2023/04/20 04:35:00;;;;;;;5.80;2.50;;;8.70;99.70;;;;;;5007982;28;20439;-64
2023/04/20 04:37:26;;;;;;;7.35;2.42;;;8.70;99.90;;;;;;5012983;28;20423;-64
2023/04/20 04:39:51;;;;;;;5.00;2.47;;;8.70;99.90;;;;;;4991820;28;20354;-64
2023/04/20 04:42:20;;;;;;;4.70;2.53;;;8.60;99.90;;;;;;4995758;28;20403;-64
2023/04/20 04:44:45;;;;;;;3.40;2.20;;;8.60;99.90;;;;;;5013248;28;20064;-64
2023/04/20 04:47:11;;;;;;;6.35;2.65;;;8.60;99.90;;;;;;5009519;28;20046;-65
2023/04/20 04:49:36;;;;;;;5.75;2.70;;;8.60;99.90;;;;;;5013111;28;20041;-64
2023/04/20 04:52:02;;;;;;;4.15;2.42;;;8.60;99.90;;;;;;4995218;28;20048;-64
2023/04/20 04:54:28;;;;;;;4.95;2.70;;;8.60;99.90;;;;;;4983739;28;20081;-62
2023/04/20 04:56:53;;;;;;;4.30;2.63;;;8.60;99.90;;;;;;5011998;28;20038;-64
2023/04/20 04:59:19;;;;;;;6.07;2.53;;;8.50;99.90;;;;;;5012974;28;20045;-64
2023/04/20 05:01:45;;;;;;;4.63;2.45;;;8.50;99.90;;;;;;4990694;28;20039;-64
2023/04/20 05:04:10;;;;;;;5.53;2.60;;;8.50;99.90;;;;;;5008735;28;20033;-64
2023/04/20 05:06:36;;;;;;;5.38;2.53;;;8.50;99.90;;;;;;4978816;28;20092;-64
2023/04/20 05:09:01;;;;;;;6.57;2.55;;;8.50;99.90;;;;;;5012889;28;20034;-64
2023/04/20 05:11:27;;;;;;;9.02;2.78;;;8.50;99.90;;;;;;4994213;28;20046;-64
2023/04/20 05:13:53;;;;;;;5.15;2.50;;;8.50;99.90;;;;;;5006899;28;20042;-62
2023/04/20 05:16:19;;;;;;;4.72;2.30;;;8.50;99.90;;;;;;5008820;28;20033;-64
2023/04/20 05:18:44;;;;;;;5.65;2.92;;;8.50;99.90;;;;;;5012312;28;20484;-65
2023/04/20 05:21:10;;;;;;;5.13;2.67;;;8.50;99.90;;;;;;4994950;28;20038;-64
2023/04/20 05:23:36;;;;;;;6.63;2.55;;;8.50;99.90;;;;;;5012149;28;20037;-65
2023/04/20 05:26:01;;;;;;;6.13;2.40;;;8.50;99.90;;;;;;4994418;28;20038;-64
2023/04/20 05:28:31;;;;;;;7.72;2.53;;;8.50;99.90;;;;;;5012327;28;20052;-64
2023/04/20 05:30:57;;;;;;;4.85;2.53;;;8.50;99.90;;;;;;5007011;28;20100;-64
2023/04/20 05:33:23;;;;;;;5.88;2.55;;;8.50;99.90;;;;;;5012652;28;20388;-64
2023/04/20 05:35:50;;;;;;;6.80;2.60;;;8.50;99.90;;;;;;5008283;28;20495;-65
2023/04/20 05:38:15;;;;;;;5.53;2.70;;;8.50;99.90;;;;;;4994669;28;20492;-64
2023/04/20 05:40:41;;;;;;;8.77;2.70;;;8.50;99.90;;;;;;4993292;28;20040;-65
2023/04/20 05:43:07;;;;;;;8.82;2.58;;;8.50;99.90;;;;;;4994614;28;20499;-65
2023/04/20 05:45:33;;;;;;;5.03;2.70;;;8.50;99.90;;;;;;4990763;28;20081;-65
2023/04/20 05:47:59;;;;;;;7.40;2.80;;;8.50;99.90;;;;;;4978449;28;20114;-65
2023/04/20 05:50:25;;;;;;;5.15;2.60;;;8.50;99.90;;;;;;5012193;28;20485;-64
2023/04/20 05:52:52;;;;;;;6.63;2.97;;;8.50;99.90;;;;;;5011263;28;20187;-65
2023/04/20 05:55:18;;;;;;;5.53;3.00;;;8.50;99.90;;;;;;4988997;28;20472;-65
2023/04/20 05:57:44;;;;;;;7.57;2.80;;;8.50;99.90;;;;;;5012068;28;20369;-63
2023/04/20 06:00:12;;;;;;;5.32;2.67;;;8.50;99.90;;;;;;4989043;28;20092;-65
2023/04/20 06:02:38;;;;;;;5.70;2.70;;;8.50;99.90;;;;;;4993997;28;20049;-65
2023/04/20 06:05:04;;;;;;;6.03;2.97;;;8.50;99.90;;;;;;4975527;28;20039;-65
2023/04/20 06:07:30;;;;;;;6.93;2.78;;;8.50;99.90;;;;;;4990009;28;20064;-65
2023/04/20 06:09:56;;;;;;;4.25;2.75;;;8.40;99.90;;;;;;5010878;28;20480;-65
2023/04/20 06:12:22;;;;;;;4.78;2.67;;;8.40;99.90;;;;;;4988582;28;20099;-64
2023/04/20 06:14:47;;;;;;;5.95;2.85;;;8.40;99.90;;;;;;5005439;28;20500;-64
2023/04/20 06:17:13;;;;;;;6.13;2.67;;;8.40;99.90;;;;;;5002486;28;20091;-64
2023/04/20 06:19:39;;;;;;;6.85;2.72;;;8.40;99.90;;;;;;5005649;28;20041;-62
2023/04/20 06:22:06;;;;;;;6.13;2.88;;;8.30;99.90;;;;;;5010252;28;20030;-62
2023/04/20 06:24:32;;;;;;;9.68;3.10;;;8.30;99.90;;;;;;5010476;28;20542;-64
2023/04/20 06:26:58;;;;;;;5.75;3.05;;;8.20;99.90;;;;;;5008967;28;20115;-64
2023/04/20 06:29:23;;;;;;;5.65;2.60;;;8.20;99.90;;;;;;5005948;28;20111;-64
2023/04/20 06:31:49;;;;;;;5.65;2.97;;;8.20;99.90;;;;;;4998519;28;20038;-62
2023/04/20 06:34:15;;;;;;;5.40;2.78;;;8.10;99.90;;;;;;5003546;28;20129;-65
2023/04/20 06:36:42;;;;;;;8.65;3.10;;;8.00;99.90;;;;;;5008133;28;20116;-65
2023/04/20 06:39:10;;;;;;;7.68;3.40;;;8.00;99.90;;;;;;5008511;28;20050;-65
2023/04/20 06:41:39;;;;;;;7.88;3.10;;;8.00;99.90;;;;;;4995280;28;20041;-64
2023/04/20 06:44:05;;;;;;;5.82;2.72;;;8.00;99.90;;;;;;5008570;28;20496;-64
2023/04/20 06:46:31;;;;;;;6.68;3.05;;;7.60;99.90;;;;;;5008127;28;20229;-64
2023/04/20 06:48:58;;;;;;;10.02;4.38;;;7.90;99.90;;;;;;4987250;28;20129;-64
2023/04/20 06:51:23;;;;;;;6.28;3.08;;;7.90;99.90;;;;;;5009433;28;20492;-65
2023/04/20 06:53:49;;;;;;;5.93;3.30;;;7.80;99.90;;;;;;5067630;22;20044;-72
2023/04/20 06:56:15;;;;;;;7.57;3.42;;;7.80;99.90;;;;;;4973421;28;20043;-73
2023/04/20 06:58:40;;;;;;;6.38;3.35;;;7.80;99.90;;;;;;4974583;28;20104;-72
2023/04/20 07:01:06;;;;;;;6.85;3.08;;;7.70;99.90;;;;;;4973833;28;20117;-72
2023/04/20 07:03:31;;;;;;;9.43;3.90;;;7.70;99.90;;;;;;4974093;28;20253;-72
2023/04/20 07:05:57;;;;;;;5.70;3.15;;;7.70;99.90;;;;;;4971198;28;20082;-73
2023/04/20 07:08:22;;;;;;;7.70;3.58;;;7.70;99.90;;;;;;4988750;28;20096;-73
2023/04/20 07:10:48;;;;;;;7.97;4.00;;;7.80;99.90;;;;;;4952578;28;20533;-72
2023/04/20 07:13:13;;;;;;;8.75;3.80;;;7.80;99.90;;;;;;4974159;28;20042;-74
2023/04/20 07:15:39;;;;;;;7.82;3.88;;;7.80;99.90;;;;;;4973686;28;20042;-73
2023/04/20 07:18:05;;;;;;;6.47;3.65;;;7.80;99.90;;;;;;4970431;28;20457;-73
2023/04/20 07:20:30;;;;;;;7.65;3.92;;;7.80;99.90;;;;;;4973999;28;20031;-72
2023/04/20 07:22:56;;;;;;;7.03;4.38;;;7.80;99.90;;;;;;4954155;28;20422;-73
2023/04/20 07:25:23;;;;;;;7.63;3.83;;;7.80;99.90;;;;;;4973584;28;20053;-73
2023/04/20 07:27:48;;;;;;;7.47;3.60;;;7.80;99.90;;;;;;4974799;28;20437;-74
2023/04/20 07:30:14;;;;;;;6.72;3.47;;;7.80;99.90;;;;;;4958458;28;20134;-74
2023/04/20 07:32:40;;;;;;;8.48;3.42;;;7.80;99.90;;;;;;4977649;28;20479;-74
2023/04/20 07:35:06;;;;;;;6.28;3.20;;;7.80;99.90;;;;;;4960206;28;20499;-73
2023/04/20 07:37:32;;;;;;;6.95;3.70;;;7.80;99.90;;;;;;4977204;28;20082;-73
2023/04/20 07:39:58;;;;;;;6.63;3.47;;;7.80;99.90;;;;;;4974785;28;20069;-73
2023/04/20 07:42:24;;;;;;;5.93;3.25;;;7.80;99.90;;;;;;4975927;28;20074;-73
2023/04/20 07:44:50;;;;;;;9.10;3.65;;;7.80;99.90;;;;;;4961217;28;20060;-73
2023/04/20 07:47:15;;;;;;;7.03;3.42;;;7.80;99.90;;;;;;4972192;28;20042;-73
2023/04/20 07:49:42;;;;;;;6.93;3.28;;;7.80;99.90;;;;;;4961765;28;20464;-73
2023/04/20 07:52:07;;;;;;;9.65;3.70;;;7.80;99.90;;;;;;4994535;28;20435;-73
2023/04/20 07:54:33;;;;;;;7.80;3.28;;;7.80;99.90;;;;;;4976976;28;20046;-73
2023/04/20 07:57:00;;;;;;;6.55;3.42;;;7.80;99.90;;;;;;4976525;28;20757;-73
2023/04/20 07:59:26;;;;;;;7.00;3.50;;;7.90;99.90;;;;;;4977484;28;20120;-72
2023/04/20 08:01:51;;;;;;;7.40;3.55;;;7.90;99.90;;;;;;4994535;28;20042;-73
2023/04/20 08:04:17;;;;;;;8.40;3.60;;;7.90;99.90;;;;;;4994598;28;20031;-73
2023/04/20 08:06:42;;;;;;;7.25;3.90;;;7.90;99.90;;;;;;4977046;28;20104;-73
2023/04/20 08:09:08;;;;;;;9.50;4.00;;;8.00;99.90;;;;;;4963405;28;20054;-73
2023/04/20 08:11:34;;;;;;;7.20;3.53;;;8.00;99.90;;;;;;4977149;28;20152;-74
2023/04/20 08:14:00;;;;;;;7.60;3.70;;;8.10;99.90;;;;;;4976384;28;20502;-73
2023/04/20 08:16:26;;;;;;;7.22;3.80;;;8.10;99.90;;;;;;4976766;28;20074;-73
2023/04/20 08:18:51;;;;;;;7.68;3.72;;;8.20;99.90;;;;;;4976787;28;20038;-76
2023/04/20 08:21:17;;;;;;;7.38;3.90;;;8.30;99.90;;;;;;4972470;28;20422;-77
2023/04/20 08:23:43;;;;;;;8.80;3.60;;;8.40;99.90;;;;;;4974797;28;20038;-76
2023/04/20 08:26:14;;;;;;;7.32;3.63;;;8.40;99.90;;;;;;4976381;28;20755;-75
2023/04/20 08:28:40;;;;;;;8.25;3.83;;;8.50;99.90;;;;;;4966659;28;20122;-76
2023/04/20 08:31:05;;;;;;;6.63;3.95;;;8.60;99.90;;;;;;4961211;28;20455;-76
2023/04/20 08:33:31;;;;;;;11.48;4.28;;;8.60;99.90;;;;;;4980322;28;20121;-76
2023/04/20 08:35:56;;;;;;;8.45;3.95;;;8.50;99.90;;;;;;4976062;28;20051;-75
2023/04/20 08:38:23;;;;;;;10.93;4.28;;;8.60;99.90;;;;;;4976072;28;20053;-76
2023/04/20 08:40:49;;;;;;;8.82;4.57;;;8.60;99.90;;;;;;4999909;28;20397;-76
2023/04/20 08:43:14;;;;;;;9.02;4.82;;;8.70;99.90;;;;;;4977286;28;20038;-76
2023/04/20 08:45:48;;;;;;;9.18;3.90;;;8.80;99.90;;;;;;4976214;28;20042;-76
2023/04/20 08:48:15;;;;;;;7.80;4.55;;;8.80;99.90;;;;;;4994094;28;20050;-76
2023/04/20 08:50:41;;;;;;;9.38;4.55;;;8.80;99.90;;;;;;4958283;28;20038;-76
2023/04/20 08:53:08;;;;;;;9.05;3.97;;;8.80;99.90;;;;;;5000627;28;20038;-76
2023/04/20 08:55:34;;;;;;;7.60;4.45;;;8.80;99.90;;;;;;4975641;28;20474;-76
2023/04/20 08:57:59;;;;;;;10.00;4.88;;;8.80;99.90;;;;;;4953757;28;20092;-75
2023/04/20 09:00:25;;;;;;;8.57;4.20;;;8.70;99.90;;;;;;4976087;28;20512;-76
2023/04/20 09:02:53;;;;;;;7.68;4.13;;;8.80;99.90;;;;;;4989021;28;20522;-76
2023/04/20 09:05:27;;;;;;;9.77;4.50;;;8.90;99.90;;;;;;4976484;28;20375;-76
2023/04/20 09:07:54;;;;;;;9.52;4.68;;;8.90;99.90;;;;;;4975522;28;20034;-75
2023/04/20 09:10:22;;;;;;;7.35;4.25;;;8.90;99.90;;;;;;4976034;28;20444;-75
2023/04/20 09:12:49;;;;;;;9.93;4.55;;;8.90;99.90;;;;;;4976915;28;20042;-75
2023/04/20 09:15:26;;;;;;;8.50;4.78;;;8.90;99.90;;;;;;4993295;28;20054;-75
2023/04/20 09:17:52;;;;;;;6.40;4.28;;;8.90;99.90;;;;;;4994202;28;20494;-75
2023/04/20 09:20:30;;;;;;;11.63;4.50;;;9.00;99.90;;;;;;4976196;28;20038;-75
2023/04/20 09:22:55;;;;;;;9.68;4.85;;;8.90;99.90;;;;;;4952443;28;20039;-76
2023/04/20 09:25:22;;;;;;;9.30;4.45;;;9.00;99.90;;;;;;4993523;28;20168;-76
2023/04/20 09:28:01;;;;;;;10.60;4.75;;;9.10;99.90;;;;;;4992898;28;20088;-75
2023/04/20 09:30:46;;;;;;;9.63;5.18;;;9.20;99.90;;;;;;4993086;28;20101;-74
2023/04/20 09:33:13;;;;;;;9.75;5.22;;;9.20;99.90;;;;;;4991760;28;20054;-75
2023/04/20 09:35:41;;;;;;;7.80;4.88;;;9.20;99.90;;;;;;4975085;28;20164;-75
2023/04/20 09:38:13;;;;;;;10.40;4.95;;;9.20;99.90;;;;;;4992768;28;20046;-76
2023/04/20 09:40:39;;;;;;;7.82;4.70;;;9.20;99.90;;;;;;4992810;28;20046;-75
2023/04/20 09:43:09;;;;;;;10.07;5.53;;;9.20;99.90;;;;;;4975038;28;20034;-75
2023/04/20 09:45:37;;;;;;;8.38;5.00;;;9.30;99.90;;;;;;4989567;28;20038;-75
2023/04/20 09:48:06;;;;;;;9.88;5.28;;;9.30;99.90;;;;;;4992663;28;20484;-74
2023/04/20 09:50:36;;;;;;;9.10;5.15;;;9.40;99.90;;;;;;4977135;28;20094;-75
2023/04/20 09:53:03;;;;;;;10.73;5.20;;;9.50;99.90;;;;;;4975148;28;20046;-76
2023/04/20 09:55:30;;;;;;;10.43;5.55;;;9.50;99.90;;;;;;4974188;28;20046;-75
2023/04/20 09:57:57;;;;;;;8.75;5.00;;;9.60;99.90;;;;;;4981128;28;20109;-73
2023/04/20 10:00:24;;;;;;;9.63;5.47;;;9.70;99.90;;;;;;4992861;28;20170;-71
2023/04/20 10:02:50;;;;;;;8.48;5.32;;;9.70;99.90;;;;;;4958805;28;20038;-72
2023/04/20 10:05:16;;;;;;;8.77;5.05;;;9.70;99.90;;;;;;4974930;28;20490;-73
2023/04/20 10:07:44;;;;;;;9.88;4.65;;;9.80;99.90;;;;;;4992164;28;20061;-73
2023/04/20 10:10:12;;;;;;;8.73;5.68;;;9.90;99.90;;;;;;4990208;28;20412;-72
2023/04/20 10:12:55;;;;;;;8.07;4.55;;;10.00;99.90;;;;;;4974559;28;20038;-72
2023/04/20 10:15:22;;;;;;;7.78;5.20;;;10.30;99.90;;;;;;4974626;28;20049;-73
2023/04/20 10:17:48;;;;;;;10.52;5.38;;;10.50;99.90;;;;;;4991725;28;20045;-73
2023/04/20 10:20:26;;;;;;;10.15;5.88;;;10.80;99.90;;;;;;4992080;28;20077;-73
2023/04/20 10:22:53;;;;;;;9.70;5.93;;;10.90;99.90;;;;;;4973745;28;20243;-74
2023/04/20 10:25:23;;;;;;;8.60;5.63;;;10.80;99.90;;;;;;4954790;28;20492;-75
2023/04/20 10:28:03;;;;;;;9.00;5.93;;;10.70;99.90;;;;;;4979809;28;20495;-76
2023/04/20 10:30:29;;;;;;;9.32;5.82;;;10.70;99.90;;;;;;4992137;28;20372;-76
2023/04/20 10:33:10;;;;;;;9.90;6.03;;;10.80;99.90;;;;;;4960173;28;20491;-75
2023/04/20 10:35:49;;;;;;;7.90;5.63;;;11.10;99.90;;;;;;4976119;28;20046;-76
2023/04/20 10:38:26;;;;;;;8.48;5.85;;;11.30;99.90;;;;;;4974120;28;20043;-75
2023/04/20 10:40:51;;;;;;;9.48;5.72;;;11.50;99.90;;;;;;4991801;28;20125;-76
2023/04/20 10:43:20;;;;;;;9.07;6.03;;;11.60;99.90;;;;;;4974415;28;20169;-75
2023/04/20 10:45:45;;;;;;;9.07;6.25;;;11.70;99.90;;;;;;4974885;28;20061;-76
2023/04/20 10:48:12;;;;;;;9.95;6.05;;;11.60;99.90;;;;;;4956300;28;20529;-75
2023/04/20 10:50:38;;;;;;;9.90;5.68;;;11.60;99.90;;;;;;4991265;28;20045;-76
2023/04/20 10:53:04;;;;;;;9.68;6.63;;;11.50;99.90;;;;;;4991640;28;20034;-75
2023/04/20 10:55:30;;;;;;;9.23;6.20;;;11.40;99.90;;;;;;4972267;28;20398;-76
2023/04/20 10:57:55;;;;;;;10.00;6.93;;;11.30;99.90;;;;;;4973785;28;20039;-75
2023/04/20 11:00:24;;;;;;;12.85;6.88;;;11.20;99.90;;;;;;4978331;28;20097;-76
2023/04/20 11:02:52;;;;;;;11.15;7.20;;;11.20;99.90;;;;;;4977694;28;20085;-75
2023/04/20 11:05:20;;;;;;;10.35;7.20;;;11.10;99.90;;;;;;4978875;28;20402;-75
2023/04/20 11:07:59;;;;;;;9.93;7.03;;;11.10;99.90;;;;;;4979862;28;20082;-74
2023/04/20 11:10:39;;;;;;;9.45;7.30;;;11.20;99.90;;;;;;4993946;28;20502;-75
2023/04/20 11:13:05;;;;;;;10.02;6.95;;;11.40;99.90;;;;;;4990878;28;20042;-76
2023/04/20 11:15:31;;;;;;;11.77;7.22;;;11.60;99.90;;;;;;4979344;28;20036;-76
2023/04/20 11:18:06;;;;;;;12.30;7.30;;;12.00;99.90;;;;;;4953601;28;20039;-76
2023/04/20 11:20:32;;;;;;;10.70;7.00;;;12.30;99.90;;;;;;4997839;28;20042;-74
2023/04/20 11:22:58;;;;;;;10.85;7.38;;;12.50;99.90;;;;;;4983510;28;20480;-74
2023/04/20 11:25:26;;;;;;;9.02;6.70;;;12.60;99.90;;;;;;4996384;28;20034;-73
2023/04/20 11:27:52;;;;;;;8.90;6.78;;;12.90;99.90;;;;;;4998307;28;20057;-72
2023/04/20 11:30:18;;;;;;;11.00;7.22;;;13.00;99.90;;;;;;4986952;28;20042;-73
2023/04/20 11:32:53;;;;;;;10.30;6.60;;;13.00;99.90;;;;;;4978173;28;20093;-73
2023/04/20 11:35:19;;;;;;;9.13;7.03;;;12.90;99.90;;;;;;4980382;28;20406;-73
2023/04/20 11:37:46;;;;;;;11.20;6.80;;;12.80;99.90;;;;;;4993218;28;20089;-73
2023/04/20 11:40:12;;;;;;;9.57;6.28;;;12.70;99.90;;;;;;4997700;28;20529;-72
2023/04/20 11:42:37;;;;;;;9.35;6.50;;;12.70;99.90;;;;;;4961334;28;20042;-73
2023/04/20 11:45:05;;;;;;;9.88;6.63;;;13.00;99.90;;;;;;5000003;28;20398;-73
2023/04/20 11:47:31;;;;;;;9.50;7.20;;;13.30;99.90;;;;;;4997913;28;20510;-73
2023/04/20 11:49:56;;;;;;;8.20;6.68;;;13.40;99.90;;;;;;4979449;28;20057;-73
2023/04/20 11:52:22;;;;;;;9.02;7.03;;;13.30;99.90;;;;;;4980789;28;20045;-74
2023/04/20 11:54:48;;;;;;;11.77;6.97;;;13.30;99.90;;;;;;4996363;28;20504;-74
2023/04/20 11:57:13;;;;;;;10.45;6.43;;;13.30;99.90;;;;;;4978132;28;20046;-74
2023/04/20 11:59:41;;;;;;;9.52;6.68;;;13.30;99.90;;;;;;4984765;28;20380;-73
2023/04/20 12:02:08;;;;;;;10.82;7.40;;;13.10;99.90;;;;;;4964067;28;20125;-73
2023/04/20 12:04:33;;;;;;;8.90;7.10;;;13.00;99.90;;;;;;4989169;28;20048;-73
2023/04/20 12:07:01;;;;;;;9.60;6.68;;;12.90;99.90;;;;;;4980098;28;20577;-73
2023/04/20 12:09:27;;;;;;;9.73;7.32;;;13.10;99.90;;;;;;4993520;28;20046;-74
2023/04/20 12:11:52;;;;;;;11.50;7.55;;;12.70;99.90;;;;;;4996082;28;20530;-77
2023/04/20 12:14:18;;;;;;;10.55;7.63;;;12.50;99.90;;;;;;4975737;28;20075;-74
2023/04/20 12:16:44;;;;;;;12.18;7.63;;;12.40;99.90;;;;;;4994024;28;20403;-74
2023/04/20 12:19:09;;;;;;;10.32;7.60;;;12.50;99.90;;;;;;4976577;28;20491;-74
2023/04/20 12:21:35;;;;;;;11.35;7.53;;;12.80;99.90;;;;;;4975091;28;20038;-74
2023/04/20 12:24:01;;;;;;;12.95;8.35;;;13.00;99.90;;;;;;4988494;28;20030;-74
2023/04/20 12:26:26;;;;;;;10.38;7.63;;;13.40;99.90;;;;;;4972805;28;20042;-73
2023/04/20 12:28:52;;;;;;;11.27;7.65;;;13.60;99.90;;;;;;4989570;28;20414;-73
2023/04/20 12:31:18;;;;;;;10.43;7.72;;;13.70;99.90;;;;;;4993397;28;20482;-72
2023/04/20 12:33:43;;;;;;;8.77;7.28;;;13.80;99.90;;;;;;4994012;28;20486;-73
2023/04/20 12:36:09;;;;;;;12.93;7.13;;;13.80;99.90;;;;;;4976174;28;20518;-73
2023/04/20 12:38:35;;;;;;;10.48;7.30;;;13.60;99.90;;;;;;4990590;28;20046;-74
2023/04/20 12:41:03;;;;;;;11.32;7.22;;;13.40;99.90;;;;;;4970811;28;20387;-73
2023/04/20 12:43:29;;;;;;;10.23;7.07;;;13.20;99.90;;;;;;4975354;28;20517;-73
2023/04/20 12:45:55;;;;;;;9.57;6.70;;;13.20;99.90;;;;;;4989204;28;20030;-73
2023/04/20 12:48:20;;;;;;;10.38;7.05;;;13.30;99.90;;;;;;4990079;28;20046;-73
2023/04/20 12:50:46;;;;;;;10.43;6.93;;;13.40;99.90;;;;;;4992614;28;20038;-73
2023/04/20 12:53:11;;;;;;;9.63;6.97;;;13.30;99.90;;;;;;4960311;28;20391;-73